createdAt,value
2022-09-07T00:00:48.881Z,0
2022-09-07T00:01:48.887Z,0
2022-09-07T00:02:52.151Z,0
2022-09-07T00:03:48.906Z,0
2022-09-07T00:04:49.218Z,0
2022-09-07T00:05:48.884Z,0
2022-09-07T00:06:48.747Z,0
2022-09-07T00:07:51.718Z,0
2022-09-07T00:08:48.939Z,0
2022-09-07T00:09:48.897Z,0
2022-09-07T00:10:48.905Z,0
2022-09-07T00:11:48.895Z,0
2022-09-07T00:12:48.900Z,0
2022-09-07T00:13:51.934Z,0
2022-09-07T00:14:48.911Z,0
2022-09-07T00:15:49.177Z,0
2022-09-07T00:16:49.105Z,0
2022-09-07T00:17:48.931Z,0
2022-09-07T00:18:54.329Z,0
2022-09-07T00:19:48.917Z,0
2022-09-07T00:20:48.906Z,0
2022-09-07T00:21:48.953Z,0
2022-09-07T00:22:48.925Z,0
2022-09-07T00:23:48.935Z,0
2022-09-07T00:24:48.926Z,0
2022-09-07T00:25:54.151Z,0
2022-09-07T00:26:48.913Z,0
2022-09-07T00:27:48.929Z,0
2022-09-07T00:28:48.945Z,0
2022-09-07T00:29:51.951Z,0
2022-09-07T00:30:48.946Z,0
2022-09-07T00:31:49.388Z,0
2022-09-07T00:32:48.778Z,0
2022-09-07T00:33:48.951Z,0
2022-09-07T00:34:51.944Z,0
2022-09-07T00:35:48.953Z,0
2022-09-07T00:36:48.939Z,0
2022-09-07T00:37:48.936Z,0
2022-09-07T00:38:48.965Z,0
2022-09-07T00:39:49.271Z,0
2022-09-07T00:40:48.952Z,0
2022-09-07T00:41:48.952Z,0
2022-09-07T00:42:48.787Z,0
2022-09-07T00:43:48.978Z,0
2022-09-07T00:44:48.985Z,0
2022-09-07T00:45:51.762Z,0
2022-09-07T00:46:49.505Z,0
2022-09-07T00:47:48.970Z,0
2022-09-07T00:48:48.987Z,0
2022-09-07T00:49:48.958Z,0
2022-09-07T00:50:48.982Z,0
2022-09-07T00:52:48.990Z,0
2022-09-07T00:53:48.989Z,0
2022-09-07T00:54:48.977Z,0
2022-09-07T00:55:48.988Z,0
2022-09-07T00:56:52.003Z,0
2022-09-07T00:57:48.976Z,0
2022-09-07T00:58:48.996Z,0
2022-09-07T00:59:48.977Z,0
2022-09-07T01:00:48.993Z,0
2022-09-07T01:01:52.277Z,0
2022-09-07T01:02:49.894Z,0
2022-09-07T01:03:49.007Z,0
2022-09-07T01:04:48.995Z,0
2022-09-07T01:05:48.981Z,0
2022-09-07T01:07:48.997Z,0
2022-09-07T01:08:49.016Z,0
2022-09-07T01:09:49.008Z,0
2022-09-07T01:10:49.011Z,0
2022-09-07T01:11:49.031Z,0
2022-09-07T01:12:51.863Z,0
2022-09-07T01:13:49.037Z,0
2022-09-07T01:14:49.034Z,0
2022-09-07T01:15:49.306Z,0
2022-09-07T01:16:49.129Z,0
2022-09-07T01:17:52.050Z,0
2022-09-07T01:18:48.875Z,0
2022-09-07T01:19:49.005Z,0
2022-09-07T01:20:49.010Z,0
2022-09-07T01:21:49.017Z,0
2022-09-07T01:22:48.860Z,0
2022-09-07T01:23:51.894Z,0
2022-09-07T01:24:48.876Z,0
2022-09-07T01:25:49.027Z,0
2022-09-07T01:26:49.027Z,0
2022-09-07T01:27:49.034Z,0
2022-09-07T01:28:50.484Z,0
2022-09-07T01:29:49.051Z,0
2022-09-07T01:30:49.293Z,0
2022-09-07T01:31:49.035Z,0
2022-09-07T01:32:49.054Z,0
2022-09-07T01:33:48.904Z,0
2022-09-07T01:34:52.077Z,0
2022-09-07T01:35:49.041Z,0
2022-09-07T01:36:49.064Z,0
2022-09-07T01:37:49.074Z,0
2022-09-07T01:38:49.080Z,0
2022-09-07T01:39:52.427Z,0
2022-09-07T01:40:48.899Z,0
2022-09-07T01:41:49.060Z,0
2022-09-07T01:42:49.055Z,0
2022-09-07T01:43:49.126Z,0
2022-09-07T01:44:49.064Z,0
2022-09-07T01:45:52.086Z,0
2022-09-07T01:46:49.592Z,0
2022-09-07T01:47:49.073Z,0
2022-09-07T01:48:48.943Z,0
2022-09-07T01:49:48.918Z,0
2022-09-07T01:50:52.054Z,0
2022-09-07T01:51:49.077Z,0
2022-09-07T01:52:49.076Z,0
2022-09-07T01:53:49.110Z,0
2022-09-07T01:54:49.084Z,0
2022-09-07T01:55:49.079Z,0
2022-09-07T01:56:52.145Z,0
2022-09-07T01:57:49.087Z,0
2022-09-07T01:58:49.119Z,0
2022-09-07T01:59:49.094Z,0
2022-09-07T02:00:49.091Z,0
2022-09-07T02:01:52.811Z,0
2022-09-07T02:02:49.582Z,0
2022-09-07T02:03:49.109Z,0
2022-09-07T02:04:49.097Z,0
2022-09-07T02:05:48.941Z,0
2022-09-07T02:06:49.112Z,0
2022-09-07T02:07:51.892Z,0
2022-09-07T02:08:49.147Z,0
2022-09-07T02:09:49.102Z,0
2022-09-07T02:10:49.115Z,0
2022-09-07T02:11:49.116Z,0
2022-09-07T02:12:52.176Z,0
2022-09-07T02:13:49.128Z,0
2022-09-07T02:14:54.976Z,0
2022-09-07T02:15:49.648Z,0
2022-09-07T02:16:49.126Z,0
2022-09-07T02:17:49.129Z,0
2022-09-07T02:18:52.153Z,0
2022-09-07T02:19:48.982Z,0
2022-09-07T02:20:48.992Z,0
2022-09-07T02:21:49.167Z,0
2022-09-07T02:22:49.159Z,0
2022-09-07T02:23:52.215Z,0
2022-09-07T02:24:49.160Z,0
2022-09-07T02:25:49.127Z,0
2022-09-07T02:26:49.001Z,0
2022-09-07T02:27:49.143Z,0
2022-09-07T02:28:49.163Z,0
2022-09-07T02:29:52.067Z,0
2022-09-07T02:30:49.630Z,0
2022-09-07T02:31:48.984Z,0
2022-09-07T02:32:49.181Z,0
2022-09-07T02:33:49.189Z,0
2022-09-07T02:34:51.926Z,0
2022-09-07T02:35:49.005Z,0
2022-09-07T02:36:49.167Z,0
2022-09-07T02:37:49.171Z,0
2022-09-07T02:38:49.021Z,0
2022-09-07T02:39:49.556Z,0
2022-09-07T02:40:52.235Z,0
2022-09-07T02:41:49.197Z,0
2022-09-07T02:42:49.190Z,0
2022-09-07T02:43:49.212Z,0
2022-09-07T02:44:49.186Z,0
2022-09-07T02:45:52.192Z,0
2022-09-07T02:46:49.502Z,0
2022-09-07T02:47:49.178Z,0
2022-09-07T02:48:49.190Z,0
2022-09-07T02:49:49.188Z,0
2022-09-07T02:50:49.184Z,0
2022-09-07T02:51:49.205Z,0
2022-09-07T02:52:49.220Z,0
2022-09-07T02:53:49.220Z,0
2022-09-07T02:54:49.212Z,0
2022-09-07T02:55:49.226Z,0
2022-09-07T02:56:52.003Z,0
2022-09-07T02:57:49.211Z,0
2022-09-07T02:58:49.229Z,0
2022-09-07T02:59:49.208Z,0
2022-09-07T03:00:49.198Z,0
2022-09-07T03:01:52.701Z,0
2022-09-07T03:02:49.639Z,0
2022-09-07T03:03:49.060Z,0
2022-09-07T03:04:49.217Z,0
2022-09-07T03:05:49.236Z,0
2022-09-07T03:06:49.218Z,0
2022-09-07T03:07:53.266Z,0
2022-09-07T03:08:49.248Z,0
2022-09-07T03:09:49.219Z,0
2022-09-07T03:10:49.214Z,0
2022-09-07T03:11:49.225Z,0
2022-09-07T03:12:52.060Z,0
2022-09-07T03:13:49.248Z,0
2022-09-07T03:14:49.234Z,0
2022-09-07T03:15:52.435Z,0
2022-09-07T03:16:49.226Z,0
2022-09-07T03:17:49.226Z,0
2022-09-07T03:18:49.266Z,0
2022-09-07T03:19:49.232Z,0
2022-09-07T03:20:49.224Z,0
2022-09-07T03:21:49.245Z,0
2022-09-07T03:22:49.268Z,0
2022-09-07T03:23:57.535Z,0
2022-09-07T03:24:49.252Z,0
2022-09-07T03:25:49.270Z,0
2022-09-07T03:26:49.262Z,0
2022-09-07T03:27:49.249Z,0
2022-09-07T03:28:52.346Z,0
2022-09-07T03:29:51.141Z,0
2022-09-07T03:30:49.825Z,0
2022-09-07T03:31:49.252Z,0
2022-09-07T03:32:49.258Z,0
2022-09-07T03:33:49.269Z,0
2022-09-07T03:34:52.264Z,0
2022-09-07T03:35:49.278Z,0
2022-09-07T03:36:49.267Z,0
2022-09-07T03:37:49.280Z,0
2022-09-07T03:38:49.290Z,0
2022-09-07T03:39:52.743Z,0
2022-09-07T03:40:49.268Z,0
2022-09-07T03:41:49.314Z,0
2022-09-07T03:42:49.296Z,0
2022-09-07T03:43:49.292Z,0
2022-09-07T03:44:52.348Z,0
2022-09-07T03:45:49.590Z,0
2022-09-07T03:46:49.286Z,0
2022-09-07T03:47:49.290Z,0
2022-09-07T03:48:49.343Z,0
2022-09-07T03:49:49.295Z,0
2022-09-07T03:50:52.049Z,0
2022-09-07T03:51:49.291Z,0
2022-09-07T03:52:49.296Z,0
2022-09-07T03:53:49.130Z,0
2022-09-07T03:54:49.296Z,0
2022-09-07T03:55:52.045Z,0
2022-09-07T03:56:49.290Z,0
2022-09-07T03:57:49.317Z,0
2022-09-07T03:58:49.333Z,0
2022-09-07T03:59:49.306Z,0
2022-09-07T04:00:49.311Z,0
2022-09-07T04:01:52.778Z,0
2022-09-07T04:02:49.683Z,0
2022-09-07T04:03:49.439Z,0
2022-09-07T04:04:49.306Z,0
2022-09-07T04:05:49.361Z,0
2022-09-07T04:06:52.084Z,0
2022-09-07T04:07:49.323Z,0
2022-09-07T04:08:49.355Z,0
2022-09-07T04:09:49.312Z,0
2022-09-07T04:10:49.320Z,0
2022-09-07T04:11:49.340Z,0
2022-09-07T04:12:52.211Z,0
2022-09-07T04:13:49.367Z,0
2022-09-07T04:14:49.387Z,0
2022-09-07T04:15:54.327Z,0
2022-09-07T04:16:49.799Z,0
2022-09-07T04:17:52.181Z,0
2022-09-07T04:18:49.363Z,0
2022-09-07T04:19:49.345Z,0
2022-09-07T04:20:49.350Z,0
2022-09-07T04:21:49.354Z,0
2022-09-07T04:22:54.154Z,0
2022-09-07T04:23:52.371Z,0
2022-09-07T04:24:49.365Z,0
2022-09-07T04:25:49.354Z,0
2022-09-07T04:26:49.350Z,0
2022-09-07T04:27:49.375Z,0
2022-09-07T04:28:52.184Z,0
2022-09-07T04:29:49.358Z,0
2022-09-07T04:30:49.891Z,0
2022-09-07T04:31:49.340Z,0
2022-09-07T04:32:49.373Z,0
2022-09-07T04:33:49.406Z,0
2022-09-07T04:34:52.361Z,0
2022-09-07T04:35:49.404Z,0
2022-09-07T04:36:49.371Z,0
2022-09-07T04:37:49.368Z,0
2022-09-07T04:38:49.410Z,0
2022-09-07T04:39:52.810Z,0
2022-09-07T04:40:49.378Z,0
2022-09-07T04:41:49.387Z,0
2022-09-07T04:42:49.376Z,0
2022-09-07T04:43:49.395Z,0
2022-09-07T04:44:49.376Z,0
2022-09-07T04:45:52.970Z,0
2022-09-07T04:46:49.391Z,0
2022-09-07T04:47:49.381Z,0
2022-09-07T04:48:49.413Z,0
2022-09-07T04:49:49.385Z,0
2022-09-07T04:50:52.447Z,0
2022-09-07T04:51:49.413Z,0
2022-09-07T04:52:49.394Z,0
2022-09-07T04:53:49.447Z,0
2022-09-07T04:54:49.390Z,0
2022-09-07T04:55:49.260Z,0
2022-09-07T04:56:52.087Z,0
2022-09-07T04:57:49.419Z,0
2022-09-07T04:58:49.438Z,0
2022-09-07T04:59:49.427Z,0
2022-09-07T05:00:49.501Z,0
2022-09-07T05:01:52.559Z,0
2022-09-07T05:02:49.943Z,0
2022-09-07T05:03:49.436Z,0
2022-09-07T05:04:49.415Z,0
2022-09-07T05:05:49.424Z,0
2022-09-07T05:06:49.475Z,5
2022-09-07T05:07:52.213Z,5
2022-09-07T05:08:49.447Z,5
2022-09-07T05:09:49.417Z,5
2022-09-07T05:10:49.458Z,5
2022-09-07T05:11:49.432Z,5
2022-09-07T05:12:52.446Z,5
2022-09-07T05:13:49.470Z,5
2022-09-07T05:14:49.446Z,5
2022-09-07T05:15:49.527Z,5
2022-09-07T05:16:50.059Z,5
2022-09-07T05:17:49.511Z,5
2022-09-07T05:18:49.455Z,5
2022-09-07T05:19:49.476Z,5
2022-09-07T05:20:49.463Z,5
2022-09-07T05:21:49.479Z,5
2022-09-07T05:22:49.471Z,5
2022-09-07T05:23:52.247Z,5
2022-09-07T05:24:49.447Z,5
2022-09-07T05:25:49.455Z,5
2022-09-07T05:26:49.451Z,5
2022-09-07T05:27:49.454Z,5
2022-09-07T05:28:50.359Z,5
2022-09-07T05:31:22.069Z,5
2022-09-07T05:32:34.274Z,5
2022-09-07T05:34:36.116Z,0
2022-09-07T05:35:45.326Z,0
2022-09-07T05:36:45.477Z,0
2022-09-07T05:37:45.454Z,0
2022-09-07T05:38:45.471Z,0
2022-09-07T05:39:46.714Z,0
2022-09-07T05:40:49.733Z,0
2022-09-07T05:41:45.476Z,0
2022-09-07T05:42:45.494Z,0
2022-09-07T05:44:48.250Z,0
2022-09-07T05:46:00.780Z,0
2022-09-07T05:46:57.599Z,0
2022-09-07T05:47:57.600Z,0
2022-09-07T05:48:57.601Z,0
2022-09-07T05:50:01.736Z,0
2022-09-07T05:51:00.745Z,0
2022-09-07T05:51:57.596Z,0
2022-09-07T05:52:57.686Z,0
2022-09-07T05:53:57.632Z,5
2022-09-07T05:55:30.958Z,5
2022-09-07T05:55:57.622Z,5
2022-09-07T05:57:00.728Z,5
2022-09-07T05:57:57.622Z,5
2022-09-07T05:58:57.627Z,5
2022-09-07T05:59:57.642Z,5
2022-09-07T06:00:57.635Z,5
2022-09-07T06:02:01.509Z,5
2022-09-07T06:02:58.450Z,5
2022-09-07T06:03:57.643Z,5
2022-09-07T06:04:57.657Z,5
2022-09-07T06:05:57.646Z,5
2022-09-07T06:07:29.851Z,5
2022-09-07T06:08:00.681Z,5
2022-09-07T06:08:57.736Z,5
2022-09-07T06:10:59.338Z,5
2022-09-07T06:12:08.702Z,10
2022-09-07T06:13:08.701Z,10
2022-09-07T06:14:11.550Z,5
2022-09-07T06:15:08.715Z,5
2022-09-07T06:16:08.845Z,5
2022-09-07T06:17:08.798Z,5
2022-09-07T06:18:08.717Z,5
2022-09-07T06:19:08.748Z,10
2022-09-07T06:20:11.530Z,10
2022-09-07T06:21:08.704Z,10
2022-09-07T06:22:08.714Z,10
2022-09-07T06:23:08.539Z,10
2022-09-07T06:24:08.713Z,10
2022-09-07T06:25:11.844Z,10
2022-09-07T06:26:08.702Z,10
2022-09-07T06:27:08.720Z,10
2022-09-07T06:28:08.719Z,10
2022-09-07T06:29:08.764Z,10
2022-09-07T06:30:08.743Z,10
2022-09-07T06:31:11.834Z,10
2022-09-07T06:32:55.903Z,15
2022-09-07T06:34:08.580Z,15
2022-09-07T06:35:08.750Z,15
2022-09-07T06:36:11.532Z,15
2022-09-07T06:37:08.745Z,15
2022-09-07T06:38:08.766Z,15
2022-09-07T06:39:08.732Z,15
2022-09-07T06:40:09.104Z,10
2022-09-07T06:42:05.381Z,10
2022-09-07T06:43:14.737Z,10
2022-09-07T06:44:14.589Z,10
2022-09-07T06:45:14.752Z,10
2022-09-07T06:47:14.770Z,10
2022-09-07T06:48:27.044Z,10
2022-09-07T06:49:23.960Z,10
2022-09-07T06:50:23.987Z,10
2022-09-07T06:51:23.966Z,15
2022-09-07T06:52:24.220Z,15
2022-09-07T06:55:06.184Z,15
2022-09-07T06:56:05.301Z,15
2022-09-07T06:57:05.219Z,15
2022-09-07T06:58:08.340Z,15
2022-09-07T06:59:05.256Z,15
2022-09-07T07:00:05.289Z,30
2022-09-07T07:01:05.366Z,15
2022-09-07T07:02:05.258Z,15
2022-09-07T07:03:08.404Z,15
2022-09-07T07:04:05.254Z,15
2022-09-07T07:05:05.278Z,15
2022-09-07T07:06:05.282Z,20
2022-09-07T07:07:05.263Z,20
2022-09-07T07:08:05.272Z,20
2022-09-07T07:09:05.266Z,30
2022-09-07T07:10:05.271Z,35
2022-09-07T07:11:05.308Z,20
2022-09-07T07:12:05.304Z,25
2022-09-07T07:13:05.675Z,20
2022-09-07T07:14:08.356Z,20
2022-09-07T07:15:05.291Z,20
2022-09-07T07:16:05.653Z,20
2022-09-07T07:17:05.306Z,15
2022-09-07T07:18:27.552Z,15
2022-09-07T07:19:05.287Z,15
2022-09-07T07:20:05.301Z,15
2022-09-07T07:21:05.318Z,15
2022-09-07T07:22:53.415Z,20
2022-09-07T07:24:10.633Z,25
2022-09-07T07:25:05.375Z,25
2022-09-07T07:26:05.320Z,25
2022-09-07T07:27:05.299Z,25
2022-09-07T07:29:06.114Z,25
2022-09-07T07:29:22.819Z,60
2022-09-07T07:30:15.554Z,125
2022-09-07T07:31:23.030Z,120
2022-09-07T07:32:15.487Z,20
2022-09-07T07:33:16.539Z,20
2022-09-07T07:34:16.038Z,120
2022-09-07T07:35:15.489Z,110
2022-09-07T07:36:18.322Z,120
2022-09-07T07:37:15.514Z,125
2022-09-07T07:40:19.801Z,20
2022-09-07T07:40:42.410Z,20
2022-09-07T07:42:09.621Z,115
2022-09-07T07:43:38.002Z,110
2022-09-07T07:44:31.367Z,110
2022-09-07T07:46:08.271Z,105
2022-09-07T07:46:34.650Z,105
2022-09-07T07:47:31.370Z,105
2022-09-07T07:48:34.172Z,110
2022-09-07T07:49:31.538Z,105
2022-09-07T07:50:49.877Z,105
2022-09-07T07:52:49.438Z,105
2022-09-07T07:53:46.844Z,105
2022-09-07T07:54:00.507Z,100
2022-09-07T07:54:59.255Z,100
2022-09-07T07:55:59.192Z,100
2022-09-07T07:57:02.386Z,95
2022-09-07T07:57:59.186Z,95
2022-09-07T07:58:59.196Z,95
2022-09-07T07:59:59.180Z,90
2022-09-07T08:01:04.766Z,90
2022-09-07T08:02:03.050Z,80
2022-09-07T08:02:59.459Z,80
2022-09-07T08:03:59.198Z,80
2022-09-07T08:04:59.367Z,80
2022-09-07T08:05:59.195Z,80
2022-09-07T08:07:02.672Z,75
2022-09-07T08:07:59.202Z,75
2022-09-07T08:08:58.555Z,80
2022-09-07T08:09:58.582Z,75
2022-09-07T08:10:58.746Z,75
2022-09-07T08:11:58.599Z,70
2022-09-07T08:13:01.339Z,75
2022-09-07T08:13:58.613Z,75
2022-09-07T08:14:58.720Z,75
2022-09-07T08:15:59.084Z,75
2022-09-07T08:16:58.751Z,70
2022-09-07T08:18:01.850Z,75
2022-09-07T08:18:59.251Z,70
2022-09-07T08:19:59.225Z,70
2022-09-07T08:20:59.444Z,70
2022-09-07T08:21:58.760Z,70
2022-09-07T08:22:59.070Z,70
2022-09-07T08:24:02.058Z,60
2022-09-07T08:24:59.253Z,70
2022-09-07T08:25:59.248Z,70
2022-09-07T08:26:59.251Z,65
2022-09-07T08:27:59.227Z,65
2022-09-07T08:29:02.019Z,65
2022-09-07T08:29:59.286Z,60
2022-09-07T08:30:59.071Z,60
2022-09-07T08:31:59.340Z,60
2022-09-07T08:32:59.289Z,65
2022-09-07T08:35:02.507Z,65
2022-09-07T08:35:59.450Z,70
2022-09-07T08:36:59.561Z,65
2022-09-07T08:37:59.112Z,65
2022-09-07T08:40:02.648Z,65
2022-09-07T08:40:59.280Z,65
2022-09-07T08:41:59.296Z,65
2022-09-07T08:42:59.270Z,65
2022-09-07T08:43:59.271Z,65
2022-09-07T08:44:59.314Z,65
2022-09-07T08:46:02.485Z,65
2022-09-07T08:46:59.907Z,55
2022-09-07T08:47:59.292Z,65
2022-09-07T08:48:59.284Z,65
2022-09-07T08:49:59.294Z,60
2022-09-07T08:51:02.386Z,60
2022-09-07T08:51:59.320Z,55
2022-09-07T08:53:00.222Z,55
2022-09-07T08:53:59.319Z,55
2022-09-07T08:54:59.365Z,55
2022-09-07T08:55:59.334Z,55
2022-09-07T08:57:29.350Z,60
2022-09-07T08:58:59.757Z,60
2022-09-07T08:59:59.312Z,60
2022-09-07T09:01:39.794Z,60
2022-09-07T09:03:30.847Z,60
2022-09-07T09:04:26.881Z,55
2022-09-07T09:05:24.203Z,60
2022-09-07T09:05:43.389Z,60
2022-09-07T09:06:41.168Z,65
2022-09-07T09:07:40.408Z,55
2022-09-07T09:08:40.538Z,60
2022-09-07T09:09:40.357Z,55
2022-09-07T09:10:43.137Z,50
2022-09-07T09:11:40.351Z,55
2022-09-07T09:12:45.547Z,55
2022-09-07T09:13:40.554Z,50
2022-09-07T09:14:40.133Z,50
2022-09-07T09:15:40.392Z,50
2022-09-07T09:16:47.425Z,50
2022-09-07T09:17:40.427Z,50
2022-09-07T09:18:40.491Z,40
2022-09-07T09:19:40.370Z,40
2022-09-07T09:20:40.193Z,45
2022-09-07T09:21:43.101Z,45
2022-09-07T09:22:40.386Z,55
2022-09-07T09:23:40.403Z,55
2022-09-07T09:24:40.512Z,55
2022-09-07T09:25:40.387Z,55
2022-09-07T09:26:40.517Z,55
2022-09-07T09:27:43.251Z,60
2022-09-07T09:28:42.696Z,55
2022-09-07T09:29:40.388Z,55
2022-09-07T09:30:40.408Z,55
2022-09-07T09:31:40.955Z,55
2022-09-07T09:32:42.077Z,50
2022-09-07T09:33:40.512Z,55
2022-09-07T09:34:44.137Z,50
2022-09-07T09:35:40.411Z,50
2022-09-07T09:36:40.473Z,55
2022-09-07T09:37:40.455Z,55
2022-09-07T09:38:43.564Z,55
2022-09-07T09:39:40.795Z,55
2022-09-07T09:40:40.632Z,55
2022-09-07T09:41:40.412Z,55
2022-09-07T09:42:40.465Z,50
2022-09-07T09:43:43.218Z,55
2022-09-07T09:44:40.457Z,50
2022-09-07T09:46:21.522Z,55
2022-09-07T09:47:41.237Z,60
2022-09-07T09:48:40.560Z,35
2022-09-07T09:49:43.293Z,30
2022-09-07T09:52:47.881Z,25
2022-09-07T09:53:01.171Z,30
2022-09-07T09:53:58.677Z,65
2022-09-07T09:55:35.263Z,55
2022-09-07T09:55:58.972Z,45
2022-09-07T09:56:58.834Z,35
2022-09-07T10:00:05.663Z,25
2022-09-07T10:00:36.598Z,25
2022-09-07T10:04:13.331Z,20
2022-09-07T10:05:02.783Z,20
2022-09-07T10:06:01.444Z,20
2022-09-07T10:07:01.629Z,20
2022-09-07T10:08:01.613Z,20
2022-09-07T10:09:01.642Z,20
2022-09-07T10:10:01.587Z,20
2022-09-07T10:11:01.608Z,20
2022-09-07T10:12:17.904Z,25
2022-09-07T10:13:04.444Z,65
2022-09-07T10:14:01.649Z,20
2022-09-07T10:15:01.609Z,25
2022-09-07T10:16:02.000Z,25
2022-09-07T10:17:04.309Z,35
2022-09-07T10:18:01.697Z,60
2022-09-07T10:19:01.642Z,25
2022-09-07T10:20:01.853Z,60
2022-09-07T10:21:01.648Z,60
2022-09-07T10:22:01.620Z,45
2022-09-07T10:23:01.643Z,50
2022-09-07T10:24:04.692Z,60
2022-09-07T10:25:01.625Z,60
2022-09-07T10:26:01.644Z,60
2022-09-07T10:27:02.052Z,25
2022-09-07T10:28:01.622Z,60
2022-09-07T10:29:19.635Z,60
2022-09-07T10:30:01.623Z,50
2022-09-07T10:31:01.896Z,55
2022-09-07T10:32:01.660Z,65
2022-09-07T10:33:01.644Z,55
2022-09-07T10:34:33.143Z,65
2022-09-07T10:35:05.243Z,50
2022-09-07T10:36:01.644Z,55
2022-09-07T10:37:01.666Z,60
2022-09-07T10:38:01.653Z,25
2022-09-07T10:39:01.668Z,25
2022-09-07T10:40:07.869Z,50
2022-09-07T10:41:01.667Z,30
2022-09-07T10:42:01.676Z,20
2022-09-07T10:43:34.913Z,25
2022-09-07T10:45:01.693Z,25
2022-09-07T10:46:04.804Z,35
2022-09-07T10:47:09.535Z,25
2022-09-07T10:48:01.674Z,25
2022-09-07T10:49:01.696Z,60
2022-09-07T10:50:31.790Z,25
2022-09-07T10:51:16.213Z,55
2022-09-07T10:52:01.694Z,50
2022-09-07T10:53:09.562Z,55
2022-09-07T10:54:40.143Z,55
2022-09-07T10:55:01.890Z,50
2022-09-07T10:56:01.698Z,55
2022-09-07T10:57:04.476Z,40
2022-09-07T10:58:01.731Z,50
2022-09-07T10:59:17.333Z,20
2022-09-07T11:00:18.377Z,45
2022-09-07T11:01:02.176Z,60
2022-09-07T11:02:04.600Z,60
2022-09-07T11:03:33.110Z,40
2022-09-07T11:04:02.227Z,55
2022-09-07T11:05:01.715Z,25
2022-09-07T11:06:01.737Z,35
2022-09-07T11:07:04.771Z,55
2022-09-07T11:08:04.513Z,55
2022-09-07T11:09:31.733Z,20
2022-09-07T11:10:01.729Z,25
2022-09-07T11:11:01.732Z,25
2022-09-07T11:12:17.299Z,35
2022-09-07T11:13:04.522Z,50
2022-09-07T11:14:21.840Z,50
2022-09-07T11:15:01.809Z,55
2022-09-07T11:16:02.173Z,45
2022-09-07T11:17:02.792Z,55
2022-09-07T11:18:04.734Z,55
2022-09-07T11:19:42.670Z,50
2022-09-07T11:20:02.023Z,50
2022-09-07T11:22:08.837Z,50
2022-09-07T11:23:01.770Z,30
2022-09-07T11:24:05.081Z,25
2022-09-07T11:25:39.204Z,15
2022-09-07T11:26:01.737Z,15
2022-09-07T11:28:01.751Z,15
2022-09-07T11:29:36.745Z,20
2022-09-07T11:30:01.746Z,20
2022-09-07T11:31:07.710Z,20
2022-09-07T11:32:01.775Z,20
2022-09-07T11:33:01.768Z,60
2022-09-07T11:34:32.099Z,60
2022-09-07T11:36:01.777Z,50
2022-09-07T11:37:01.758Z,50
2022-09-07T11:38:01.831Z,55
2022-09-07T11:39:01.769Z,50
2022-09-07T11:40:05.539Z,55
2022-09-07T11:41:01.760Z,55
2022-09-07T11:42:42.548Z,55
2022-09-07T11:43:01.814Z,55
2022-09-07T11:44:01.843Z,55
2022-09-07T11:45:02.204Z,55
2022-09-07T11:46:05.330Z,50
2022-09-07T11:47:01.707Z,20
2022-09-07T11:48:01.798Z,40
2022-09-07T11:49:04.321Z,25
2022-09-07T11:50:07.571Z,30
2022-09-07T11:51:04.653Z,50
2022-09-07T11:52:08.227Z,50
2022-09-07T11:53:03.080Z,50
2022-09-07T11:54:01.795Z,45
2022-09-07T11:55:01.951Z,45
2022-09-07T11:56:01.816Z,40
2022-09-07T11:57:04.719Z,40
2022-09-07T11:58:04.808Z,30
2022-09-07T11:59:01.809Z,45
2022-09-07T12:00:01.842Z,50
2022-09-07T12:01:01.928Z,50
2022-09-07T12:02:04.656Z,50
2022-09-07T12:03:09.547Z,50
2022-09-07T12:04:02.792Z,35
2022-09-07T12:05:05.843Z,10
2022-09-07T12:06:01.826Z,10
2022-09-07T12:07:01.825Z,15
2022-09-07T12:08:04.647Z,10
2022-09-07T12:09:01.829Z,15
2022-09-07T12:10:01.920Z,45
2022-09-07T12:11:01.866Z,50
2022-09-07T12:12:01.832Z,50
2022-09-07T12:13:04.812Z,50
2022-09-07T12:14:01.842Z,50
2022-09-07T12:15:01.874Z,50
2022-09-07T12:16:02.324Z,50
2022-09-07T12:17:01.964Z,50
2022-09-07T12:18:01.831Z,50
2022-09-07T12:19:01.906Z,20
2022-09-07T12:20:01.859Z,50
2022-09-07T12:21:01.864Z,50
2022-09-07T12:22:01.848Z,50
2022-09-07T12:23:08.186Z,50
2022-09-07T12:24:01.868Z,50
2022-09-07T12:25:02.004Z,50
2022-09-07T12:26:01.975Z,45
2022-09-07T12:27:01.895Z,50
2022-09-07T12:28:01.861Z,50
2022-09-07T12:29:01.866Z,50
2022-09-07T12:30:01.902Z,50
2022-09-07T12:31:02.218Z,50
2022-09-07T12:33:04.157Z,45
2022-09-07T12:34:13.658Z,45
2022-09-07T12:35:17.107Z,50
2022-09-07T12:36:13.603Z,35
2022-09-07T12:37:19.427Z,45
2022-09-07T12:38:13.597Z,45
2022-09-07T12:39:13.599Z,50
2022-09-07T12:40:14.199Z,45
2022-09-07T12:41:16.533Z,45
2022-09-07T12:42:44.507Z,45
2022-09-07T12:43:19.166Z,45
2022-09-07T12:45:13.730Z,45
2022-09-07T12:46:14.903Z,50
2022-09-07T12:47:13.660Z,45
2022-09-07T12:48:17.406Z,45
2022-09-07T12:49:13.660Z,50
2022-09-07T12:50:14.709Z,45
2022-09-07T12:51:13.922Z,45
2022-09-07T12:52:25.442Z,50
2022-09-07T12:53:13.847Z,50
2022-09-07T12:54:13.626Z,50
2022-09-07T12:56:18.264Z,20
2022-09-07T12:56:27.713Z,15
2022-09-07T12:57:42.986Z,10
2022-09-07T12:58:30.866Z,10
2022-09-07T12:59:35.276Z,10
2022-09-07T13:00:27.540Z,10
2022-09-07T13:01:28.477Z,10
2022-09-07T13:02:28.392Z,15
2022-09-07T13:03:59.111Z,20
2022-09-07T13:04:30.738Z,50
2022-09-07T13:05:27.707Z,15
2022-09-07T13:07:08.702Z,15
2022-09-07T13:07:27.726Z,15
2022-09-07T13:08:27.743Z,20
2022-09-07T13:09:30.447Z,15
2022-09-07T13:10:28.093Z,15
2022-09-07T13:11:27.714Z,20
2022-09-07T13:13:06.101Z,15
2022-09-07T13:14:16.859Z,15
2022-09-07T13:15:35.063Z,15
2022-09-07T13:16:28.868Z,15
2022-09-07T13:17:31.104Z,15
2022-09-07T13:18:27.772Z,15
2022-09-07T13:19:27.639Z,15
2022-09-07T13:20:33.001Z,15
2022-09-07T13:21:32.200Z,15
2022-09-07T13:22:27.711Z,15
2022-09-07T13:23:27.786Z,45
2022-09-07T13:24:57.942Z,35
2022-09-07T13:26:30.800Z,10
2022-09-07T13:27:27.717Z,10
2022-09-07T13:28:28.210Z,10
2022-09-07T13:29:28.484Z,35
2022-09-07T13:30:27.715Z,35
2022-09-07T13:31:31.626Z,45
2022-09-07T13:33:12.719Z,35
2022-09-07T13:33:27.756Z,35
2022-09-07T13:34:27.729Z,35
2022-09-07T13:35:27.939Z,35
2022-09-07T13:36:27.782Z,40
2022-09-07T13:37:27.752Z,35
2022-09-07T13:38:27.736Z,40
2022-09-07T13:39:27.777Z,40
2022-09-07T13:40:27.860Z,35
2022-09-07T13:41:27.777Z,40
2022-09-07T13:42:32.853Z,40
2022-09-07T13:43:27.859Z,40
2022-09-07T13:44:33.289Z,40
2022-09-07T13:45:27.790Z,40
2022-09-07T13:46:28.269Z,40
2022-09-07T13:47:27.856Z,40
2022-09-07T13:48:27.763Z,40
2022-09-07T13:49:27.589Z,40
2022-09-07T13:50:27.765Z,40
2022-09-07T13:51:27.877Z,40
2022-09-07T13:52:27.818Z,40
2022-09-07T13:53:27.876Z,40
2022-09-07T13:54:27.777Z,35
2022-09-07T13:55:33.027Z,40
2022-09-07T13:56:27.779Z,40
2022-09-07T13:57:27.612Z,40
2022-09-07T13:58:27.772Z,40
2022-09-07T13:59:27.831Z,10
2022-09-07T14:00:27.818Z,35
2022-09-07T14:01:28.269Z,40
2022-09-07T14:02:28.115Z,40
2022-09-07T14:03:27.869Z,40
2022-09-07T14:04:27.783Z,40
2022-09-07T14:05:27.795Z,40
2022-09-07T14:06:27.645Z,40
2022-09-07T14:07:27.935Z,40
2022-09-07T14:08:27.824Z,40
2022-09-07T14:09:30.838Z,40
2022-09-07T14:10:27.797Z,40
2022-09-07T14:11:27.688Z,40
2022-09-07T14:12:27.851Z,35
2022-09-07T14:13:27.915Z,35
2022-09-07T14:14:30.914Z,35
2022-09-07T14:15:27.800Z,35
2022-09-07T14:16:28.100Z,35
2022-09-07T14:17:27.804Z,35
2022-09-07T14:18:27.825Z,20
2022-09-07T14:19:28.680Z,35
2022-09-07T14:20:30.585Z,35
2022-09-07T14:21:28.241Z,35
2022-09-07T14:22:27.816Z,35
2022-09-07T14:23:28.420Z,35
2022-09-07T14:24:27.862Z,35
2022-09-07T14:26:15.788Z,50
2022-09-07T14:26:28.294Z,50
2022-09-07T14:27:27.682Z,50
2022-09-07T14:28:27.858Z,50
2022-09-07T14:29:27.834Z,45
2022-09-07T14:30:28.028Z,45
2022-09-07T14:31:31.316Z,45
2022-09-07T14:32:28.514Z,35
2022-09-07T14:33:28.380Z,10
2022-09-07T14:34:29.802Z,10
2022-09-07T14:35:27.841Z,40
2022-09-07T14:36:53.162Z,40
2022-09-07T14:37:28.274Z,45
2022-09-07T14:39:13.403Z,45
2022-09-07T14:39:28.299Z,40
2022-09-07T14:40:28.047Z,40
2022-09-07T14:41:28.203Z,40
2022-09-07T14:42:31.196Z,35
2022-09-07T14:43:28.134Z,40
2022-09-07T14:44:27.872Z,40
2022-09-07T14:45:28.414Z,35
2022-09-07T14:46:29.023Z,40
2022-09-07T14:47:31.637Z,40
2022-09-07T14:48:40.641Z,40
2022-09-07T14:49:28.844Z,40
2022-09-07T14:50:30.851Z,35
2022-09-07T14:51:44.061Z,35
2022-09-07T14:52:27.897Z,35
2022-09-07T14:53:44.173Z,35
2022-09-07T14:54:27.993Z,35
2022-09-07T14:55:27.979Z,35
2022-09-07T14:56:27.923Z,35
2022-09-07T14:57:27.914Z,35
2022-09-07T14:58:30.943Z,35
2022-09-07T14:59:28.188Z,35
2022-09-07T15:00:28.057Z,30
2022-09-07T15:01:58.155Z,35
2022-09-07T15:02:28.608Z,35
2022-09-07T15:03:27.913Z,10